createdAt,value
2023-04-29T00:02:48.362Z,979.1
2023-04-29T00:22:00.821Z,979.2
2023-04-29T00:41:10.691Z,979.5
2023-04-29T01:00:22.232Z,979.8
2023-04-29T01:19:33.119Z,979.8
2023-04-29T01:38:46.403Z,979.8
2023-04-29T01:57:58.227Z,979.9
2023-04-29T02:17:08.866Z,980
2023-04-29T02:36:19.922Z,980
2023-04-29T02:55:32.447Z,980.2
2023-04-29T03:14:44.300Z,980.3
2023-04-29T03:33:57.231Z,980.4
2023-04-29T03:53:10.397Z,980.4
2023-04-29T04:12:21.020Z,980.6
2023-04-29T04:31:34.045Z,980.8
2023-04-29T04:50:44.590Z,981
2023-04-29T05:09:56.926Z,981.2
2023-04-29T05:29:08.450Z,981.5
2023-04-29T05:48:20.461Z,981.7
2023-04-29T06:07:35.761Z,981.9
2023-04-29T06:26:54.854Z,982.2
2023-04-29T06:45:58.578Z,982.4
2023-04-29T07:05:09.978Z,982.8
2023-04-29T07:24:25.377Z,983
2023-04-29T07:43:32.545Z,983.2
2023-04-29T08:02:40.775Z,983.4
2023-04-29T08:21:51.091Z,983.6
2023-04-29T08:41:06.903Z,983.7
2023-04-29T09:00:18.952Z,984
2023-04-29T09:19:27.525Z,984.1
2023-04-29T09:38:44.711Z,984.3
2023-04-29T09:57:52.891Z,984.5
2023-04-29T10:17:06.103Z,984.7
2023-04-29T10:36:20.423Z,984.7
2023-04-29T10:55:31.811Z,984.9
2023-04-29T11:14:42.383Z,985
2023-04-29T11:33:53.395Z,985.2
2023-04-29T11:53:10.398Z,985.2
2023-04-29T12:12:18.252Z,985.3
2023-04-29T12:31:32.938Z,985.4
2023-04-29T12:50:46.081Z,985.4
2023-04-29T13:09:59.601Z,985.4
2023-04-29T13:29:10.198Z,985.5
2023-04-29T13:49:58.398Z,985.6
2023-04-29T14:08:28.965Z,985.7
2023-04-29T14:27:38.278Z,985.8
2023-04-29T14:46:51.485Z,985.9
2023-04-29T15:06:05.659Z,986
2023-04-29T15:25:17.914Z,986.1
2023-04-29T15:44:28.464Z,986.2
2023-04-29T16:03:39.909Z,986.3
2023-04-29T16:22:52.023Z,986.5
2023-04-29T16:42:05.561Z,986.4
2023-04-29T17:01:14.363Z,986.5
2023-04-29T17:20:24.732Z,986.6
2023-04-29T17:39:37.910Z,986.6
2023-04-29T17:58:48.165Z,986.6
2023-04-29T18:17:59.895Z,986.8
2023-04-29T18:37:10.641Z,986.9
2023-04-29T18:56:21.578Z,986.9
2023-04-29T19:15:35.081Z,987
2023-04-29T19:34:45.999Z,987.2
2023-04-29T19:53:56.342Z,987.1
2023-04-29T20:13:08.318Z,987.3
2023-04-29T20:32:20.451Z,987.5
2023-04-29T20:51:33.533Z,987.5
2023-04-29T21:10:45.901Z,987.7
2023-04-29T21:29:56.445Z,987.6
2023-04-29T21:49:06.418Z,987.8
2023-04-29T22:08:16.540Z,987.9
2023-04-29T22:27:30.161Z,988
2023-04-29T22:46:37.335Z,988.1
2023-04-29T23:05:48.268Z,988.2
2023-04-29T23:25:00.291Z,988.3
2023-04-29T23:44:10.677Z,988.3
